createdAt,value
2023-01-01T00:01:47.586Z,16.74
2023-01-01T00:05:50.704Z,16.80
2023-01-01T00:10:21.174Z,16.66
2023-01-01T00:14:24.259Z,16.77
2023-01-01T00:18:27.585Z,16.63
2023-01-01T00:26:54.974Z,16.49
2023-01-01T00:30:58.046Z,16.47
2023-01-01T00:35:01.084Z,16.28
2023-01-01T00:39:05.178Z,16.32
2023-01-01T00:43:09.563Z,16.14
2023-01-01T00:47:12.611Z,16.30
2023-01-01T00:51:15.677Z,16.20
2023-01-01T00:55:19.147Z,16.17
2023-01-01T00:59:28.479Z,16.15
2023-01-01T01:03:32.197Z,16.11
2023-01-01T01:07:37.599Z,16.08
2023-01-01T01:11:40.666Z,16.01
2023-01-01T01:15:45.260Z,16.08
2023-01-01T01:19:48.288Z,16.04
2023-01-01T01:23:52.353Z,16.03
2023-01-01T01:27:55.359Z,15.98
2023-01-01T01:32:00.073Z,15.96
2023-01-01T01:36:03.323Z,15.89
2023-01-01T01:40:07.844Z,15.87
2023-01-01T01:44:43.961Z,15.82
2023-01-01T01:48:51.124Z,15.72
2023-01-01T01:53:03.425Z,15.70
2023-01-01T01:57:10.488Z,15.80
2023-01-01T02:01:14.591Z,15.78
2023-01-01T02:05:20.460Z,15.64
2023-01-01T02:09:24.270Z,15.73
2023-01-01T02:13:27.581Z,15.77
2023-01-01T02:17:39.136Z,15.68
2023-01-01T02:21:57.750Z,15.68
2023-01-01T02:26:38.667Z,15.73
2023-01-01T02:30:46.884Z,15.69
2023-01-01T02:34:56.058Z,15.61
2023-01-01T02:39:03.174Z,15.54
2023-01-01T02:43:07.065Z,15.73
2023-01-01T02:47:20.361Z,15.68
2023-01-01T02:51:32.021Z,15.66
2023-01-01T02:55:48.959Z,15.63
2023-01-01T03:00:27.613Z,15.61
2023-01-01T03:04:41.860Z,15.57
2023-01-01T03:08:50.991Z,15.51
2023-01-01T03:12:58.551Z,15.53
2023-01-01T03:17:06.444Z,15.55
2023-01-01T03:25:18.092Z,15.55
2023-01-01T03:29:23.174Z,15.59
2023-01-01T03:33:33.095Z,15.55
2023-01-01T03:37:37.667Z,15.52
2023-01-01T03:41:45.407Z,15.59
2023-01-01T03:45:51.941Z,15.58
2023-01-01T03:49:55.111Z,15.55
2023-01-01T03:54:08.245Z,15.53
2023-01-01T03:58:18.637Z,15.39
2023-01-01T04:02:27.505Z,15.28
2023-01-01T04:06:30.807Z,15.32
2023-01-01T04:10:38.484Z,15.26
2023-01-01T04:14:43.132Z,15.29
2023-01-01T04:18:46.253Z,15.26
2023-01-01T04:22:49.439Z,15.36
2023-01-01T04:26:54.707Z,15.42
2023-01-01T04:35:00.024Z,15.32
2023-01-01T04:39:03.449Z,15.45
2023-01-01T04:43:08.246Z,15.32
2023-01-01T04:47:12.042Z,15.31
2023-01-01T04:51:17.110Z,15.29
2023-01-01T04:55:20.610Z,15.18
2023-01-01T04:59:24.985Z,15.27
2023-01-01T05:03:28.272Z,15.17
2023-01-01T05:07:31.321Z,15.18
2023-01-01T05:11:34.351Z,15.18
2023-01-01T05:15:39.241Z,15.10
2023-01-01T05:19:42.286Z,15.13
2023-01-01T05:23:45.702Z,15.13
2023-01-01T05:27:48.716Z,15.09
2023-01-01T05:31:53.324Z,15.03
2023-01-01T05:35:56.396Z,15.06
2023-01-01T05:39:59.440Z,14.95
2023-01-01T05:44:03.030Z,14.78
2023-01-01T05:48:07.888Z,14.98
2023-01-01T05:52:10.925Z,15.00
2023-01-01T05:56:15.501Z,15.03
2023-01-01T06:00:18.949Z,15.15
2023-01-01T06:04:23.357Z,15.03
2023-01-01T06:08:26.451Z,14.96
2023-01-01T06:12:30.588Z,15.11
2023-01-01T06:16:33.650Z,15.01
2023-01-01T06:20:38.171Z,15.00
2023-01-01T06:24:41.222Z,14.97
2023-01-01T06:28:45.823Z,15.03
2023-01-01T06:32:48.839Z,14.97
2023-01-01T06:36:53.201Z,14.96
2023-01-01T06:40:57.667Z,14.97
2023-01-01T06:45:00.784Z,14.97
2023-01-01T06:49:06.008Z,14.86
2023-01-01T06:53:10.365Z,14.85
2023-01-01T06:57:13.404Z,14.82
2023-01-01T07:01:19.754Z,14.86
2023-01-01T07:05:23.009Z,14.83
2023-01-01T07:09:27.339Z,14.81
2023-01-01T07:13:31.711Z,14.80
2023-01-01T07:17:35.798Z,14.65
2023-01-01T07:21:43.522Z,14.50
2023-01-01T07:25:50.236Z,14.27
2023-01-01T07:29:53.277Z,14.00
2023-01-01T07:33:56.448Z,13.65
2023-01-01T07:37:59.591Z,13.79
2023-01-01T07:42:10.681Z,13.77
2023-01-01T07:46:16.389Z,13.91
2023-01-01T07:50:20.441Z,13.95
2023-01-01T07:54:23.516Z,13.99
2023-01-01T07:58:27.910Z,13.98
2023-01-01T08:02:31.063Z,13.95
2023-01-01T08:06:34.209Z,13.95
2023-01-01T08:10:37.457Z,13.94
2023-01-01T08:14:42.032Z,14.00
2023-01-01T08:18:45.108Z,13.98
2023-01-01T08:22:48.138Z,13.97
2023-01-01T08:26:51.580Z,13.92
2023-01-01T08:30:56.020Z,14.02
2023-01-01T08:34:59.169Z,14.06
2023-01-01T08:39:02.467Z,14.15
2023-01-01T08:43:05.552Z,14.11
2023-01-01T08:47:18.586Z,14.14
2023-01-01T08:51:21.782Z,14.16
2023-01-01T08:55:24.803Z,14.17
2023-01-01T08:59:27.829Z,14.14
2023-01-01T09:03:32.277Z,14.17
2023-01-01T09:07:35.374Z,14.17
2023-01-01T09:11:38.520Z,14.17
2023-01-01T09:15:43.269Z,14.13
2023-01-01T09:19:47.670Z,14.11
2023-01-01T09:23:50.819Z,14.21
2023-01-01T09:27:58.294Z,14.20
2023-01-01T09:32:01.366Z,14.20
2023-01-01T09:36:29.426Z,14.17
2023-01-01T09:40:51.345Z,14.10
2023-01-01T09:45:03.959Z,14.17
2023-01-01T09:49:16.028Z,14.19
2023-01-01T09:53:27.386Z,14.19
2023-01-01T09:57:32.835Z,14.21
2023-01-01T10:01:55.813Z,14.19
2023-01-01T10:06:07.962Z,14.19
2023-01-01T10:10:23.653Z,14.20
2023-01-01T10:14:33.965Z,14.20
2023-01-01T10:18:40.046Z,14.20
2023-01-01T10:22:48.343Z,14.22
2023-01-01T10:26:56.138Z,14.25
2023-01-01T10:31:15.703Z,14.26
2023-01-01T10:35:25.248Z,14.24
2023-01-01T10:39:31.518Z,14.24
2023-01-01T10:43:35.937Z,14.34
2023-01-01T10:47:39.031Z,14.31
2023-01-01T10:51:45.916Z,14.33
2023-01-01T10:55:51.020Z,14.37
2023-01-01T10:59:55.933Z,14.32
2023-01-01T11:04:01.181Z,14.47
2023-01-01T11:08:04.335Z,14.50
2023-01-01T11:12:30.702Z,14.62
2023-01-01T11:16:34.586Z,14.80
2023-01-01T11:20:37.763Z,14.70
2023-01-01T11:24:40.889Z,14.65
2023-01-01T11:28:44.138Z,14.79
2023-01-01T11:32:55.256Z,14.70
2023-01-01T11:37:11.868Z,14.60
2023-01-01T11:41:15.015Z,14.51
2023-01-01T11:45:21.711Z,14.59
2023-01-01T11:49:29.279Z,14.60
2023-01-01T11:53:34.292Z,14.57
2023-01-01T11:57:40.348Z,14.63
2023-01-01T12:01:47.153Z,14.57
2023-01-01T12:05:57.562Z,14.47
2023-01-01T12:10:04.543Z,14.49
2023-01-01T12:14:18.305Z,14.48
2023-01-01T12:18:26.920Z,14.47
2023-01-01T12:22:31.573Z,14.39
2023-01-01T12:26:53.769Z,14.35
2023-01-01T12:31:07.904Z,14.36
2023-01-01T12:35:20.137Z,14.31
2023-01-01T12:40:02.659Z,14.33
2023-01-01T12:44:18.015Z,14.34
2023-01-01T12:48:38.616Z,14.28
2023-01-01T12:52:54.893Z,14.33
2023-01-01T12:57:07.739Z,14.27
2023-01-01T13:01:14.234Z,14.22
2023-01-01T13:05:21.892Z,14.29
2023-01-01T13:09:28.753Z,14.21
2023-01-01T13:13:33.406Z,14.15
2023-01-01T13:17:36.487Z,14.14
2023-01-01T13:21:39.557Z,14.15
2023-01-01T13:25:42.626Z,14.11
2023-01-01T13:29:48.371Z,14.09
2023-01-01T13:34:23.967Z,14.08
2023-01-01T13:38:50.298Z,14.13
2023-01-01T13:43:06.713Z,14.14
2023-01-01T13:47:34.848Z,14.03
2023-01-01T13:52:05.986Z,14.02
2023-01-01T13:56:26.951Z,13.96
2023-01-01T14:00:38.514Z,13.94
2023-01-01T14:04:48.512Z,13.92
2023-01-01T14:09:02.752Z,13.91
2023-01-01T14:13:17.631Z,13.89
2023-01-01T14:17:21.588Z,13.88
2023-01-01T14:21:29.107Z,13.85
2023-01-01T14:25:32.352Z,13.84
2023-01-01T14:29:36.318Z,13.82
2023-01-01T14:33:39.707Z,13.83
2023-01-01T14:37:44.525Z,13.82
2023-01-01T14:41:47.613Z,13.80
2023-01-01T14:45:52.635Z,13.83
2023-01-01T14:50:00.662Z,13.79
2023-01-01T14:54:05.927Z,13.77
2023-01-01T14:58:13.681Z,13.77
2023-01-01T15:02:19.667Z,13.75
2023-01-01T15:06:24.682Z,13.64
2023-01-01T15:10:32.322Z,13.49
2023-01-01T15:14:39.616Z,13.38
2023-01-01T15:18:45.795Z,13.28
2023-01-01T15:22:49.857Z,13.33
2023-01-01T15:26:56.425Z,13.29
2023-01-01T15:31:00.958Z,13.42
2023-01-01T15:35:07.551Z,13.39
2023-01-01T15:39:11.646Z,13.34
2023-01-01T15:43:21.074Z,13.23
2023-01-01T15:47:26.831Z,13.07
2023-01-01T15:51:30.561Z,12.90
2023-01-01T15:55:36.414Z,12.78
2023-01-01T15:59:45.005Z,12.61
2023-01-01T16:03:52.137Z,12.49
2023-01-01T16:08:00.144Z,12.35
2023-01-01T16:12:03.233Z,12.24
2023-01-01T16:16:24.646Z,12.13
2023-01-01T16:20:27.754Z,11.97
2023-01-01T16:24:30.995Z,12.00
2023-01-01T16:28:34.089Z,11.92
2023-01-01T16:32:38.577Z,11.80
2023-01-01T16:36:41.794Z,11.72
2023-01-01T16:40:45.380Z,11.68
2023-01-01T16:44:48.426Z,11.60
2023-01-01T16:48:52.899Z,11.55
2023-01-01T16:52:55.955Z,11.53
2023-01-01T16:56:58.969Z,11.44
2023-01-01T17:01:02.219Z,11.40
2023-01-01T17:05:07.369Z,11.37
2023-01-01T17:09:13.656Z,11.34
2023-01-01T17:13:16.711Z,11.35
2023-01-01T17:17:21.940Z,11.30
2023-01-01T17:21:26.854Z,11.30
2023-01-01T17:25:29.973Z,11.27
2023-01-01T17:29:32.973Z,11.25
2023-01-01T17:33:37.021Z,11.21
2023-01-01T17:37:41.378Z,11.20
2023-01-01T17:41:45.464Z,11.17
2023-01-01T17:45:48.488Z,11.20
2023-01-01T17:49:51.552Z,11.17
2023-01-01T17:53:57.118Z,11.20
2023-01-01T17:58:00.164Z,11.20
2023-01-01T18:02:06.064Z,11.17
2023-01-01T18:06:09.745Z,11.12
2023-01-01T18:10:14.189Z,11.11
2023-01-01T18:14:21.039Z,11.08
2023-01-01T18:18:27.558Z,11.08
2023-01-01T18:22:31.704Z,11.08
2023-01-01T18:26:36.188Z,11.07
2023-01-01T18:30:39.656Z,11.07
2023-01-01T18:34:42.709Z,11.05
2023-01-01T18:38:48.684Z,11.06
2023-01-01T18:42:58.673Z,11.14
2023-01-01T18:47:13.836Z,11.36
2023-01-01T18:51:22.977Z,11.40
2023-01-01T18:55:28.175Z,11.40
2023-01-01T18:59:33.190Z,11.48
2023-01-01T19:03:41.233Z,11.46
2023-01-01T19:07:46.751Z,11.37
2023-01-01T19:11:50.616Z,11.32
2023-01-01T19:15:58.194Z,11.27
2023-01-01T19:20:01.405Z,11.17
2023-01-01T19:24:13.858Z,11.17
2023-01-01T19:28:36.954Z,11.19
2023-01-01T19:32:42.348Z,11.15
2023-01-01T19:36:46.306Z,11.14
2023-01-01T19:40:49.706Z,11.16
2023-01-01T19:44:52.811Z,11.12
2023-01-01T19:48:57.814Z,11.09
2023-01-01T19:53:00.993Z,11.10
2023-01-01T19:57:04.081Z,11.08
2023-01-01T20:01:07.601Z,11.05
2023-01-01T20:05:12.267Z,11.05
2023-01-01T20:09:15.354Z,11.07
2023-01-01T20:13:18.513Z,11.10
2023-01-01T20:17:21.796Z,11.19
2023-01-01T20:21:52.110Z,11.11
2023-01-01T20:25:55.397Z,11.14
2023-01-01T20:29:58.451Z,11.16
2023-01-01T20:34:01.522Z,11.19
2023-01-01T20:38:05.955Z,11.23
2023-01-01T20:42:09.152Z,11.28
2023-01-01T20:46:12.243Z,11.40
2023-01-01T20:50:15.450Z,11.40
2023-01-01T20:54:20.231Z,11.37
2023-01-01T20:58:23.272Z,11.37
2023-01-01T21:02:27.170Z,11.36
2023-01-01T21:06:30.408Z,11.33
2023-01-01T21:10:34.885Z,11.29
2023-01-01T21:14:38.096Z,11.26
2023-01-01T21:18:42.369Z,11.27
2023-01-01T21:22:47.857Z,11.24
2023-01-01T21:26:54.602Z,11.26
2023-01-01T21:31:00.966Z,11.26
2023-01-01T21:35:17.030Z,11.27
2023-01-01T21:39:29.100Z,11.29
2023-01-01T21:43:42.757Z,11.30
2023-01-01T21:47:45.961Z,11.33
2023-01-01T21:51:53.363Z,11.33
2023-01-01T21:55:58.178Z,11.37
2023-01-01T22:00:02.835Z,11.36
2023-01-01T22:04:21.987Z,11.35
2023-01-01T22:08:26.919Z,11.42
2023-01-01T22:12:32.576Z,11.42
2023-01-01T22:16:37.319Z,11.50
2023-01-01T22:20:43.129Z,11.52
2023-01-01T22:24:52.941Z,11.62
2023-01-01T22:28:59.947Z,11.66
2023-01-01T22:33:10.972Z,11.73
2023-01-01T22:37:19.275Z,11.80
2023-01-01T22:41:22.466Z,11.81
2023-01-01T22:45:25.516Z,11.89
2023-01-01T22:49:37.060Z,11.93
2023-01-01T22:53:40.112Z,11.94
2023-01-01T22:57:43.301Z,12.03
2023-01-01T23:01:46.458Z,12.18
2023-01-01T23:05:50.913Z,12.35
2023-01-01T23:09:54.017Z,12.95
2023-01-01T23:14:13.910Z,13.11
2023-01-01T23:18:16.944Z,13.32
2023-01-01T23:22:21.876Z,13.38
2023-01-01T23:26:26.014Z,13.42
2023-01-01T23:30:29.065Z,13.49
2023-01-01T23:34:32.581Z,13.51
2023-01-01T23:38:37.718Z,13.61
2023-01-01T23:42:40.747Z,14.02
2023-01-01T23:46:44.029Z,14.61
2023-01-01T23:50:50.515Z,14.52
2023-01-01T23:54:54.901Z,14.55
2023-01-01T23:58:58.032Z,14.75
